createdAt,value
2023-05-09T00:01:21.605Z,10.37
2023-05-09T00:05:43.553Z,8.53
2023-05-09T00:10:06.368Z,11.43
2023-05-09T00:14:29.688Z,10.30
2023-05-09T00:18:52.786Z,8.60
2023-05-09T00:23:14.517Z,9.83
2023-05-09T00:27:36.492Z,9.63
2023-05-09T00:31:58.234Z,10.57
2023-05-09T00:36:21.385Z,11.13
2023-05-09T00:40:43.158Z,11.17
2023-05-09T00:45:05.872Z,10.57
2023-05-09T00:49:27.818Z,10.33
2023-05-09T00:53:51.186Z,12.07
2023-05-09T00:58:13.469Z,14.00
2023-05-09T01:02:35.467Z,12.87
2023-05-09T01:07:03.940Z,12.87
2023-05-09T01:11:33.024Z,11.57
2023-05-09T01:16:01.141Z,14.90
2023-05-09T01:20:30.133Z,12.17
2023-05-09T01:25:10.881Z,14.33
2023-05-09T01:29:37.989Z,11.00
2023-05-09T01:34:02.530Z,12.00
2023-05-09T01:38:25.852Z,13.07
2023-05-09T01:42:51.085Z,15.37
2023-05-09T01:47:15.826Z,11.87
2023-05-09T01:51:38.802Z,11.80
2023-05-09T01:56:01.722Z,13.50
2023-05-09T02:00:24.880Z,15.23
2023-05-09T02:04:49.779Z,18.53
2023-05-09T02:09:12.422Z,14.33
2023-05-09T02:13:34.258Z,23.27
2023-05-09T02:17:56.081Z,21.70
2023-05-09T02:22:19.280Z,18.43
2023-05-09T02:26:41.425Z,22.70
2023-05-09T02:31:05.495Z,13.83
2023-05-09T02:35:28.706Z,17.40
2023-05-09T02:39:52.107Z,17.77
2023-05-09T02:44:13.898Z,22.03
2023-05-09T02:48:35.884Z,25.27
2023-05-09T02:52:57.573Z,21.80
2023-05-09T02:57:20.866Z,21.27
2023-05-09T03:01:42.955Z,24.17
2023-05-09T03:06:04.936Z,15.70
2023-05-09T03:10:26.713Z,20.27
2023-05-09T03:14:49.767Z,20.70
2023-05-09T03:19:11.507Z,21.40
2023-05-09T03:23:33.353Z,17.77
2023-05-09T03:27:55.103Z,24.13
2023-05-09T03:32:18.164Z,17.80
2023-05-09T03:36:39.969Z,17.73
2023-05-09T03:41:01.732Z,19.57
2023-05-09T03:45:23.511Z,25.70
2023-05-09T03:49:46.637Z,24.73
2023-05-09T03:54:08.704Z,25.67
2023-05-09T03:58:30.421Z,20.30
2023-05-09T04:02:52.303Z,20.60
2023-05-09T04:07:15.632Z,25.40
2023-05-09T04:11:37.345Z,23.30
2023-05-09T04:15:59.085Z,23.97
2023-05-09T04:20:21.016Z,26.67
2023-05-09T04:24:44.183Z,26.90
2023-05-09T04:29:05.911Z,24.90
2023-05-09T04:33:27.629Z,23.93
2023-05-09T04:37:49.369Z,18.17
2023-05-09T04:42:12.431Z,17.57
2023-05-09T04:46:35.002Z,17.97
2023-05-09T04:50:56.790Z,21.93
2023-05-09T04:55:18.511Z,21.33
2023-05-09T04:59:41.616Z,20.17
2023-05-09T05:04:03.714Z,16.53
2023-05-09T05:08:25.429Z,19.40
2023-05-09T05:12:47.290Z,16.03
2023-05-09T05:17:10.484Z,18.13
2023-05-09T05:21:32.240Z,16.23
2023-05-09T05:25:53.967Z,16.33
2023-05-09T05:30:15.969Z,16.80
2023-05-09T05:34:39.130Z,22.43
2023-05-09T05:39:00.869Z,17.00
2023-05-09T05:43:22.622Z,18.10
2023-05-09T05:47:44.371Z,14.83
2023-05-09T05:52:07.871Z,14.97
2023-05-09T05:56:29.599Z,15.10
2023-05-09T06:00:51.952Z,15.37
2023-05-09T06:05:13.892Z,14.40
2023-05-09T06:09:37.147Z,13.40
2023-05-09T06:13:58.974Z,12.97
2023-05-09T06:18:20.844Z,12.57
2023-05-09T06:22:42.552Z,12.17
2023-05-09T06:27:05.649Z,11.47
2023-05-09T06:31:27.477Z,11.00
2023-05-09T06:35:49.231Z,10.93
2023-05-09T06:40:11.271Z,11.67
2023-05-09T06:44:34.363Z,9.70
2023-05-09T06:48:56.091Z,8.87
2023-05-09T06:53:17.897Z,8.60
2023-05-09T06:57:39.828Z,6.37
2023-05-09T07:02:03.093Z,8.23
2023-05-09T07:06:25.110Z,8.20
2023-05-09T07:10:47.072Z,5.50
2023-05-09T07:15:10.003Z,5.60
2023-05-09T07:19:33.081Z,5.60
2023-05-09T07:23:54.872Z,4.90
2023-05-09T07:28:16.736Z,4.90
2023-05-09T07:32:38.499Z,4.17
2023-05-09T07:37:01.642Z,4.10
2023-05-09T07:41:23.405Z,6.13
2023-05-09T07:45:45.201Z,5.43
2023-05-09T07:50:07.979Z,6.30
2023-05-09T07:54:31.181Z,3.53
2023-05-09T07:58:55.040Z,3.90
2023-05-09T08:03:17.739Z,5.53
2023-05-09T08:07:39.630Z,4.23
2023-05-09T08:12:02.767Z,4.23
2023-05-09T08:16:24.635Z,2.87
2023-05-09T08:20:46.552Z,3.63
2023-05-09T08:25:08.955Z,3.57
2023-05-09T08:29:32.027Z,2.70
2023-05-09T08:33:53.763Z,3.77
2023-05-09T08:38:15.478Z,3.03
2023-05-09T08:42:37.736Z,4.90
2023-05-09T08:47:02.176Z,5.27
2023-05-09T08:51:24.998Z,3.73
2023-05-09T08:55:47.020Z,2.93
2023-05-09T09:00:11.524Z,5.97
2023-05-09T09:04:34.691Z,4.47
2023-05-09T09:08:57.312Z,3.23
2023-05-09T09:13:21.726Z,2.93
2023-05-09T09:17:48.455Z,2.53
2023-05-09T09:22:15.464Z,7.07
2023-05-09T09:26:46.342Z,3.60
2023-05-09T09:31:21.677Z,2.40
2023-05-09T09:35:43.460Z,2.97
2023-05-09T09:40:08.122Z,7.27
2023-05-09T09:44:29.853Z,3.63
2023-05-09T09:48:52.497Z,4.20
2023-05-09T09:53:14.300Z,4.33
2023-05-09T09:57:38.648Z,4.77
2023-05-09T10:02:07.976Z,5.10
2023-05-09T10:06:30.583Z,2.77
2023-05-09T10:10:52.425Z,3.70
2023-05-09T10:15:18.182Z,10.70
2023-05-09T10:19:43.942Z,4.73
2023-05-09T10:24:07.175Z,6.60
2023-05-09T10:28:32.604Z,4.33
2023-05-09T10:33:03.704Z,3.27
2023-05-09T10:37:26.631Z,8.17
2023-05-09T10:41:49.640Z,4.53
2023-05-09T10:46:12.710Z,3.83
2023-05-09T10:50:36.949Z,8.77
2023-05-09T10:54:59.082Z,5.73
2023-05-09T11:04:25.206Z,3.63
2023-05-09T11:08:48.267Z,5.73
2023-05-09T11:13:10.340Z,5.10
2023-05-09T11:17:32.221Z,3.10
2023-05-09T11:22:01.514Z,4.53
2023-05-09T11:26:29.096Z,3.80
2023-05-09T11:30:51.134Z,5.10
2023-05-09T11:35:19.265Z,3.33
2023-05-09T11:39:56.217Z,4.20
2023-05-09T11:44:21.105Z,2.73
2023-05-09T11:48:42.866Z,2.93
2023-05-09T11:53:04.798Z,3.67
2023-05-09T11:57:26.602Z,2.63
2023-05-09T12:01:51.221Z,2.23
2023-05-09T12:06:16.780Z,2.63
2023-05-09T12:10:39.321Z,3.53
2023-05-09T12:15:02.903Z,3.13
2023-05-09T12:19:26.859Z,3.30
2023-05-09T12:23:51.191Z,3.47
2023-05-09T12:28:15.212Z,2.77
2023-05-09T12:32:38.083Z,4.53
2023-05-09T12:37:01.379Z,6.53
2023-05-09T12:41:36.980Z,5.60
2023-05-09T12:46:02.491Z,2.07
2023-05-09T12:50:32.071Z,2.90
2023-05-09T12:54:55.116Z,2.87
2023-05-09T12:59:20.707Z,3.43
2023-05-09T13:03:42.548Z,2.97
2023-05-09T13:08:04.675Z,2.23
2023-05-09T13:12:27.729Z,3.13
2023-05-09T13:16:49.604Z,2.87
2023-05-09T13:21:11.451Z,2.23
2023-05-09T13:25:33.323Z,3.47
2023-05-09T13:29:56.508Z,1.73
2023-05-09T13:34:18.236Z,2.63
2023-05-09T13:38:40.009Z,2.67
2023-05-09T13:43:01.715Z,1.63
2023-05-09T13:47:25.021Z,2.43
2023-05-09T13:51:46.791Z,2.53
2023-05-09T13:56:08.622Z,4.33
2023-05-09T14:00:30.429Z,11.43
2023-05-09T14:04:53.573Z,6.90
2023-05-09T14:09:15.357Z,4.43
2023-05-09T14:13:37.100Z,10.10
2023-05-09T14:17:58.870Z,7.57
2023-05-09T14:22:22.026Z,6.87
2023-05-09T14:26:43.955Z,6.53
2023-05-09T14:31:05.716Z,6.17
2023-05-09T14:35:27.692Z,5.73
2023-05-09T14:39:50.975Z,8.57
2023-05-09T14:44:12.839Z,5.00
2023-05-09T14:48:34.589Z,6.83
2023-05-09T14:52:56.313Z,6.00
2023-05-09T14:57:19.481Z,5.43
2023-05-09T15:01:41.262Z,7.63
2023-05-09T15:06:03.206Z,10.10
2023-05-09T15:10:24.956Z,7.60
2023-05-09T15:14:48.110Z,10.00
2023-05-09T15:19:09.949Z,6.20
2023-05-09T15:23:31.715Z,5.77
2023-05-09T15:27:53.624Z,6.53
2023-05-09T15:32:16.686Z,8.23
2023-05-09T15:36:38.438Z,6.97
2023-05-09T15:41:00.259Z,8.83
2023-05-09T15:45:22.019Z,5.00
2023-05-09T15:49:46.287Z,6.77
2023-05-09T15:54:08.226Z,6.23
2023-05-09T15:58:30.658Z,5.80
2023-05-09T16:02:52.534Z,6.23
2023-05-09T16:07:15.808Z,6.27
2023-05-09T16:11:37.665Z,4.37
2023-05-09T16:16:00.246Z,5.10
2023-05-09T16:20:22.024Z,5.70
2023-05-09T16:24:45.158Z,5.47
2023-05-09T16:29:08.007Z,3.80
2023-05-09T16:33:30.100Z,4.57
2023-05-09T16:37:51.830Z,5.00
2023-05-09T16:42:14.864Z,5.17
2023-05-09T16:46:36.596Z,3.60
2023-05-09T16:50:58.376Z,4.37
2023-05-09T16:55:20.240Z,3.30
2023-05-09T16:59:43.382Z,4.70
2023-05-09T17:04:06.695Z,4.40
2023-05-09T17:08:28.803Z,4.73
2023-05-09T17:12:50.614Z,3.37
2023-05-09T17:17:14.362Z,6.17
2023-05-09T17:21:36.115Z,5.53
2023-05-09T17:25:57.877Z,7.63
2023-05-09T17:30:22.151Z,3.80
2023-05-09T17:34:46.158Z,3.73
2023-05-09T17:39:07.891Z,1.80
2023-05-09T17:43:29.618Z,5.70
2023-05-09T17:47:51.384Z,2.80
2023-05-09T17:52:14.856Z,5.10
2023-05-09T17:56:36.825Z,1.93
2023-05-09T18:00:58.711Z,5.33
2023-05-09T18:05:20.596Z,7.57
2023-05-09T18:09:43.762Z,4.03
2023-05-09T18:14:05.588Z,3.60
2023-05-09T18:18:27.382Z,2.07
2023-05-09T18:22:49.357Z,5.93
2023-05-09T18:27:12.577Z,3.30
2023-05-09T18:31:34.332Z,5.73
2023-05-09T18:35:56.087Z,1.67
2023-05-09T18:40:18.005Z,4.63
2023-05-09T18:44:41.182Z,3.43
2023-05-09T18:49:02.913Z,4.37
2023-05-09T18:53:24.713Z,1.83
2023-05-09T18:57:46.546Z,1.80
2023-05-09T19:02:09.722Z,9.30
2023-05-09T19:06:31.662Z,2.37
2023-05-09T19:10:53.498Z,1.20
2023-05-09T19:15:15.407Z,2.33
2023-05-09T19:19:38.607Z,4.17
2023-05-09T19:24:00.451Z,2.30
2023-05-09T19:28:22.236Z,3.43
2023-05-09T19:32:44.412Z,3.53
2023-05-09T19:37:07.583Z,9.47
2023-05-09T19:41:29.315Z,4.33
2023-05-09T19:45:51.085Z,4.80
2023-05-09T19:50:13.198Z,2.53
2023-05-09T19:54:36.356Z,2.97
2023-05-09T19:58:58.153Z,2.90
2023-05-09T20:03:19.999Z,2.77
2023-05-09T20:07:41.849Z,6.43
2023-05-09T20:12:05.672Z,8.67
2023-05-09T20:16:27.602Z,3.83
2023-05-09T20:20:49.373Z,6.97
2023-05-09T20:25:11.516Z,8.90
2023-05-09T20:29:34.660Z,6.43
2023-05-09T20:33:56.989Z,3.93
2023-05-09T20:38:18.812Z,4.70
2023-05-09T20:42:40.548Z,3.20
2023-05-09T20:47:03.635Z,4.83
2023-05-09T20:51:25.362Z,3.93
2023-05-09T20:55:49.029Z,6.50
2023-05-09T21:00:13.163Z,4.10
2023-05-09T21:04:37.098Z,4.97
2023-05-09T21:08:58.869Z,5.70
2023-05-09T21:13:20.647Z,5.57
2023-05-09T21:17:42.485Z,6.47
2023-05-09T21:22:05.605Z,6.63
2023-05-09T21:26:27.329Z,4.70
2023-05-09T21:30:50.594Z,7.07
2023-05-09T21:35:12.368Z,4.67
2023-05-09T21:39:35.665Z,4.73
2023-05-09T21:43:57.578Z,5.53
2023-05-09T21:48:19.401Z,6.77
2023-05-09T21:52:41.135Z,6.40
2023-05-09T21:57:05.293Z,7.77
2023-05-09T22:01:27.097Z,7.80
2023-05-09T22:05:48.899Z,5.60
2023-05-09T22:10:11.046Z,8.23
2023-05-09T22:14:42.012Z,6.97
2023-05-09T22:19:10.623Z,8.40
2023-05-09T22:23:32.389Z,10.00
2023-05-09T22:27:54.340Z,7.43
2023-05-09T22:32:17.391Z,8.10
2023-05-09T22:36:39.089Z,9.40
2023-05-09T22:41:00.818Z,7.80
2023-05-09T22:45:22.593Z,9.03
2023-05-09T22:49:45.992Z,11.30
2023-05-09T22:54:07.989Z,8.17
2023-05-09T22:58:29.717Z,8.87
2023-05-09T23:02:51.715Z,10.60
2023-05-09T23:07:14.872Z,11.60
2023-05-09T23:11:36.669Z,10.67
2023-05-09T23:15:58.488Z,12.60
2023-05-09T23:20:20.325Z,14.27
2023-05-09T23:24:43.594Z,13.67
2023-05-09T23:29:05.426Z,12.10
2023-05-09T23:33:27.314Z,12.63
2023-05-09T23:37:49.023Z,14.80
2023-05-09T23:42:12.123Z,12.97
2023-05-09T23:46:35.272Z,12.37
2023-05-09T23:50:57.003Z,14.20
2023-05-09T23:55:18.898Z,12.83
2023-05-09T23:59:41.936Z,15.67
